sensor_id;sensor_type;location;lat;lon;timestamp;pressure;altitude;pressure_sealevel;temperature;humidity
80188;BME280;73735;52.134;5.436;2023-12-20T00:01:04;101726.88;;;6.72;88.65
80188;BME280;73735;52.134;5.436;2023-12-20T00:03:31;101726.94;;;6.71;88.64
80188;BME280;73735;52.134;5.436;2023-12-20T00:06:08;101719.16;;;6.69;88.64
80188;BME280;73735;52.134;5.436;2023-12-20T00:08:35;101717.41;;;6.70;88.90
80188;BME280;73735;52.134;5.436;2023-12-20T00:11:01;101717.56;;;6.67;88.71
80188;BME280;73735;52.134;5.436;2023-12-20T00:13:28;101716.88;;;6.63;88.34
80188;BME280;73735;52.134;5.436;2023-12-20T00:15:54;101709.00;;;6.63;88.54
80188;BME280;73735;52.134;5.436;2023-12-20T00:18:21;101709.94;;;6.62;88.65
80188;BME280;73735;52.134;5.436;2023-12-20T00:20:48;101708.16;;;6.63;88.50
80188;BME280;73735;52.134;5.436;2023-12-20T00:23:14;101704.78;;;6.61;88.48
80188;BME280;73735;52.134;5.436;2023-12-20T00:25:41;101706.53;;;6.60;88.66
80188;BME280;73735;52.134;5.436;2023-12-20T00:28:07;101707.66;;;6.55;88.34
80188;BME280;73735;52.134;5.436;2023-12-20T00:30:34;101698.34;;;6.49;88.27
80188;BME280;73735;52.134;5.436;2023-12-20T00:33:00;101706.28;;;6.48;88.33
80188;BME280;73735;52.134;5.436;2023-12-20T00:35:27;101704.59;;;6.47;88.42
80188;BME280;73735;52.134;5.436;2023-12-20T00:37:53;101706.47;;;6.43;88.76
80188;BME280;73735;52.134;5.436;2023-12-20T00:40:20;101712.63;;;6.42;88.72
80188;BME280;73735;52.134;5.436;2023-12-20T00:42:47;101711.09;;;6.38;88.43
80188;BME280;73735;52.134;5.436;2023-12-20T00:45:14;101711.84;;;6.40;88.89
80188;BME280;73735;52.134;5.436;2023-12-20T00:47:40;101710.16;;;6.39;88.86
80188;BME280;73735;52.134;5.436;2023-12-20T00:50:08;101711.09;;;6.38;88.48
80188;BME280;73735;52.134;5.436;2023-12-20T00:52:35;101704.31;;;6.34;88.34
80188;BME280;73735;52.134;5.436;2023-12-20T00:55:02;101702.75;;;6.30;88.33
80188;BME280;73735;52.134;5.436;2023-12-20T00:57:30;101695.81;;;6.29;88.46
80188;BME280;73735;52.134;5.436;2023-12-20T00:59:57;101710.66;;;6.28;88.68
80188;BME280;73735;52.134;5.436;2023-12-20T01:02:23;101714.19;;;6.27;88.28
80188;BME280;73735;52.134;5.436;2023-12-20T01:04:50;101699.50;;;6.25;88.13
80188;BME280;73735;52.134;5.436;2023-12-20T01:07:16;101693.66;;;6.20;88.38
80188;BME280;73735;52.134;5.436;2023-12-20T01:09:43;101692.81;;;6.19;88.09
80188;BME280;73735;52.134;5.436;2023-12-20T01:12:09;101682.41;;;6.18;88.56
80188;BME280;73735;52.134;5.436;2023-12-20T01:14:36;101685.22;;;6.13;88.44
80188;BME280;73735;52.134;5.436;2023-12-20T01:17:02;101687.00;;;6.13;88.25
80188;BME280;73735;52.134;5.436;2023-12-20T01:19:29;101692.28;;;6.11;88.45
80188;BME280;73735;52.134;5.436;2023-12-20T01:21:56;101688.75;;;6.12;88.79
80188;BME280;73735;52.134;5.436;2023-12-20T01:24:22;101688.75;;;6.12;88.23
80188;BME280;73735;52.134;5.436;2023-12-20T01:26:49;101698.38;;;6.12;88.84
80188;BME280;73735;52.134;5.436;2023-12-20T01:29:15;101711.44;;;6.12;88.83
80188;BME280;73735;52.134;5.436;2023-12-20T01:31:42;101716.66;;;6.12;88.39
80188;BME280;73735;52.134;5.436;2023-12-20T01:34:08;101713.06;;;6.14;88.44
80188;BME280;73735;52.134;5.436;2023-12-20T01:36:35;101709.47;;;6.17;88.68
80188;BME280;73735;52.134;5.436;2023-12-20T01:39:01;101711.09;;;6.19;88.74
80188;BME280;73735;52.134;5.436;2023-12-20T01:41:33;101703.31;;;6.18;88.25
80188;BME280;73735;52.134;5.436;2023-12-20T01:43:59;101702.53;;;6.16;88.32
80188;BME280;73735;52.134;5.436;2023-12-20T01:46:26;101701.63;;;6.17;88.55
80188;BME280;73735;52.134;5.436;2023-12-20T01:48:53;101691.94;;;6.19;88.31
80188;BME280;73735;52.134;5.436;2023-12-20T01:51:20;101689.34;;;6.19;88.28
80188;BME280;73735;52.134;5.436;2023-12-20T01:53:48;101690.13;;;6.21;88.19
80188;BME280;73735;52.134;5.436;2023-12-20T01:56:15;101691.94;;;6.19;88.52
80188;BME280;73735;52.134;5.436;2023-12-20T01:58:46;101698.09;;;6.18;88.55
80188;BME280;73735;52.134;5.436;2023-12-20T02:01:13;101698.03;;;6.19;88.70
80188;BME280;73735;52.134;5.436;2023-12-20T02:03:41;101691.03;;;6.20;88.42
80188;BME280;73735;52.134;5.436;2023-12-20T02:06:09;101692.72;;;6.21;88.65
80188;BME280;73735;52.134;5.436;2023-12-20T02:08:36;101695.34;;;6.21;88.25
80188;BME280;73735;52.134;5.436;2023-12-20T02:11:02;101693.59;;;6.21;88.42
80188;BME280;73735;52.134;5.436;2023-12-20T02:13:30;101687.63;;;6.18;88.92
80188;BME280;73735;52.134;5.436;2023-12-20T02:15:56;101691.81;;;6.22;88.90
80188;BME280;73735;52.134;5.436;2023-12-20T02:18:23;101690.13;;;6.21;88.39
80188;BME280;73735;52.134;5.436;2023-12-20T02:20:50;101683.13;;;6.21;88.62
80188;BME280;73735;52.134;5.436;2023-12-20T02:23:16;101689.09;;;6.23;89.14
80188;BME280;73735;52.134;5.436;2023-12-20T02:25:43;101682.88;;;6.26;88.86
80188;BME280;73735;52.134;5.436;2023-12-20T02:28:10;101684.50;;;6.28;89.09
80188;BME280;73735;52.134;5.436;2023-12-20T02:30:36;101685.38;;;6.29;89.21
80188;BME280;73735;52.134;5.436;2023-12-20T02:33:06;101680.13;;;6.29;88.98
80188;BME280;73735;52.134;5.436;2023-12-20T02:35:33;101682.75;;;6.29;89.04
80188;BME280;73735;52.134;5.436;2023-12-20T02:38:00;101678.31;;;6.31;88.87
80188;BME280;73735;52.134;5.436;2023-12-20T02:40:26;101673.91;;;6.31;88.91
80188;BME280;73735;52.134;5.436;2023-12-20T02:42:53;101678.31;;;6.31;88.52
80188;BME280;73735;52.134;5.436;2023-12-20T02:45:19;101677.38;;;6.32;88.80
80188;BME280;73735;52.134;5.436;2023-12-20T02:47:46;101671.25;;;6.33;88.97
80188;BME280;73735;52.134;5.436;2023-12-20T02:50:13;101661.47;;;6.36;88.95
80188;BME280;73735;52.134;5.436;2023-12-20T02:52:39;101665.03;;;6.35;88.73
80188;BME280;73735;52.134;5.436;2023-12-20T02:55:06;101667.69;;;6.34;88.51
80188;BME280;73735;52.134;5.436;2023-12-20T02:57:32;101659.06;;;6.32;88.73
80188;BME280;73735;52.134;5.436;2023-12-20T03:00:02;101665.16;;;6.32;88.81
80188;BME280;73735;52.134;5.436;2023-12-20T03:02:28;101655.63;;;6.31;88.44
80188;BME280;73735;52.134;5.436;2023-12-20T03:04:55;101648.75;;;6.29;88.85
80188;BME280;73735;52.134;5.436;2023-12-20T03:07:21;101654.84;;;6.29;88.88
80188;BME280;73735;52.134;5.436;2023-12-20T03:09:48;101653.91;;;6.30;88.82
80188;BME280;73735;52.134;5.436;2023-12-20T03:12:34;101656.31;;;6.35;88.53
80188;BME280;73735;52.134;5.436;2023-12-20T03:15:01;101652.78;;;6.36;88.64
80188;BME280;73735;52.134;5.436;2023-12-20T03:17:27;101649.31;;;6.35;88.74
80188;BME280;73735;52.134;5.436;2023-12-20T03:19:54;101642.34;;;6.36;88.89
80188;BME280;73735;52.134;5.436;2023-12-20T03:22:20;101654.38;;;6.38;88.48
80188;BME280;73735;52.134;5.436;2023-12-20T03:24:47;101642.16;;;6.39;88.88
80188;BME280;73735;52.134;5.436;2023-12-20T03:27:13;101630.84;;;6.38;88.60
80188;BME280;73735;52.134;5.436;2023-12-20T03:29:40;101625.63;;;6.38;88.64
80188;BME280;73735;52.134;5.436;2023-12-20T03:32:06;101632.66;;;6.38;88.41
80188;BME280;73735;52.134;5.436;2023-12-20T03:34:32;101622.84;;;6.42;88.74
80188;BME280;73735;52.134;5.436;2023-12-20T03:36:59;101636.00;;;6.40;87.93
80188;BME280;73735;52.134;5.436;2023-12-20T03:39:25;101633.31;;;6.42;88.53
80188;BME280;73735;52.134;5.436;2023-12-20T03:41:52;101635.00;;;6.43;88.53
80188;BME280;73735;52.134;5.436;2023-12-20T03:44:18;101641.81;;;6.47;88.10
80188;BME280;73735;52.134;5.436;2023-12-20T03:46:45;101644.34;;;6.48;87.81
80188;BME280;73735;52.134;5.436;2023-12-20T03:49:11;101636.28;;;6.53;87.91
80188;BME280;73735;52.134;5.436;2023-12-20T03:51:38;101639.56;;;6.56;87.56
80188;BME280;73735;52.134;5.436;2023-12-20T03:54:05;101630.88;;;6.56;87.98
80188;BME280;73735;52.134;5.436;2023-12-20T03:56:31;101640.50;;;6.55;87.81
80188;BME280;73735;52.134;5.436;2023-12-20T03:58:57;101635.25;;;6.55;87.62
80188;BME280;73735;52.134;5.436;2023-12-20T04:01:24;101633.44;;;6.57;87.89
80188;BME280;73735;52.134;5.436;2023-12-20T04:03:50;101633.56;;;6.54;87.25
80188;BME280;73735;52.134;5.436;2023-12-20T04:06:18;101628.34;;;6.54;87.38
80188;BME280;73735;52.134;5.436;2023-12-20T04:08:44;101631.72;;;6.56;87.52
80188;BME280;73735;52.134;5.436;2023-12-20T04:11:11;101634.19;;;6.59;87.25
80188;BME280;73735;52.134;5.436;2023-12-20T04:13:38;101637.66;;;6.60;87.08
80188;BME280;73735;52.134;5.436;2023-12-20T04:16:04;101634.97;;;6.61;87.15
80188;BME280;73735;52.134;5.436;2023-12-20T04:18:31;101622.59;;;6.65;86.94
80188;BME280;73735;52.134;5.436;2023-12-20T04:20:58;101617.38;;;6.65;86.71
80188;BME280;73735;52.134;5.436;2023-12-20T04:23:24;101613.91;;;6.64;86.88
80188;BME280;73735;52.134;5.436;2023-12-20T04:25:51;101622.69;;;6.63;86.70
80188;BME280;73735;52.134;5.436;2023-12-20T04:28:17;101622.59;;;6.65;86.78
80188;BME280;73735;52.134;5.436;2023-12-20T04:30:44;101617.13;;;6.69;86.84
80188;BME280;73735;52.134;5.436;2023-12-20T04:33:10;101632.69;;;6.72;86.73
80188;BME280;73735;52.134;5.436;2023-12-20T04:35:37;101628.22;;;6.75;86.71
80188;BME280;73735;52.134;5.436;2023-12-20T04:38:04;101624.53;;;6.79;86.47
80188;BME280;73735;52.134;5.436;2023-12-20T04:40:31;101636.69;;;6.80;86.34
80188;BME280;73735;52.134;5.436;2023-12-20T04:42:58;101624.28;;;6.83;86.53
80188;BME280;73735;52.134;5.436;2023-12-20T04:45:24;101615.50;;;6.84;85.93
80188;BME280;73735;52.134;5.436;2023-12-20T04:47:51;101614.66;;;6.84;86.31
80188;BME280;73735;52.134;5.436;2023-12-20T04:50:18;101619.81;;;6.85;85.76
80188;BME280;73735;52.134;5.436;2023-12-20T04:52:46;101627.53;;;6.88;85.60
80188;BME280;73735;52.134;5.436;2023-12-20T04:55:12;101619.59;;;6.90;85.88
80188;BME280;73735;52.134;5.436;2023-12-20T04:57:39;101610.81;;;6.91;85.72
80188;BME280;73735;52.134;5.436;2023-12-20T05:00:06;101615.06;;;6.93;85.73
80188;BME280;73735;52.134;5.436;2023-12-20T05:02:35;101607.13;;;6.95;85.64
80188;BME280;73735;52.134;5.436;2023-12-20T05:05:02;101604.34;;;6.98;85.48
80188;BME280;73735;52.134;5.436;2023-12-20T05:07:29;101599.09;;;6.98;85.31
80188;BME280;73735;52.134;5.436;2023-12-20T05:09:55;101602.50;;;7.00;85.39
80188;BME280;73735;52.134;5.436;2023-12-20T05:12:22;101620.66;;;7.03;85.75
80188;BME280;73735;52.134;5.436;2023-12-20T05:14:48;101613.59;;;7.05;85.08
80188;BME280;73735;52.134;5.436;2023-12-20T05:17:15;101618.75;;;7.06;85.17
80188;BME280;73735;52.134;5.436;2023-12-20T05:19:41;101610.91;;;7.06;85.19
80188;BME280;73735;52.134;5.436;2023-12-20T05:22:08;101609.97;;;7.07;85.04
80188;BME280;73735;52.134;5.436;2023-12-20T05:24:34;101614.13;;;7.12;85.21
80188;BME280;73735;52.134;5.436;2023-12-20T05:27:01;101615.91;;;7.11;84.79
80188;BME280;73735;52.134;5.436;2023-12-20T05:29:27;101609.91;;;7.09;84.93
80188;BME280;73735;52.134;5.436;2023-12-20T05:31:54;101615.13;;;7.09;84.56
80188;BME280;73735;52.134;5.436;2023-12-20T05:34:20;101616.81;;;7.10;85.13
80188;BME280;73735;52.134;5.436;2023-12-20T05:36:47;101608.03;;;7.11;85.07
80188;BME280;73735;52.134;5.436;2023-12-20T05:39:13;101611.59;;;7.10;85.11
80188;BME280;73735;52.134;5.436;2023-12-20T05:41:40;101603.66;;;7.12;85.13
80188;BME280;73735;52.134;5.436;2023-12-20T05:44:06;101611.50;;;7.12;84.78
80188;BME280;73735;52.134;5.436;2023-12-20T05:46:33;101614.03;;;7.13;84.89
80188;BME280;73735;52.134;5.436;2023-12-20T05:48:59;101606.16;;;7.13;84.97
80188;BME280;73735;52.134;5.436;2023-12-20T05:51:26;101607.00;;;7.14;85.05
80188;BME280;73735;52.134;5.436;2023-12-20T05:53:52;101612.25;;;7.14;84.80
80188;BME280;73735;52.134;5.436;2023-12-20T05:56:19;101615.72;;;7.14;84.67
80188;BME280;73735;52.134;5.436;2023-12-20T05:58:45;101610.41;;;7.16;84.62
80188;BME280;73735;52.134;5.436;2023-12-20T06:01:14;101610.31;;;7.17;84.52
80188;BME280;73735;52.134;5.436;2023-12-20T06:03:41;101620.81;;;7.17;84.37
80188;BME280;73735;52.134;5.436;2023-12-20T06:06:08;101609.41;;;7.18;84.46
80188;BME280;73735;52.134;5.436;2023-12-20T06:08:42;101612.03;;;7.18;84.60
80188;BME280;73735;52.134;5.436;2023-12-20T06:11:10;101603.16;;;7.21;84.60
80188;BME280;73735;52.134;5.436;2023-12-20T06:13:36;101610.94;;;7.22;84.51
80188;BME280;73735;52.134;5.436;2023-12-20T06:16:05;101609.25;;;7.21;84.46
80188;BME280;73735;52.134;5.436;2023-12-20T06:18:32;101597.00;;;7.22;83.98
80188;BME280;73735;52.134;5.436;2023-12-20T06:20:59;101601.41;;;7.21;84.09
80188;BME280;73735;52.134;5.436;2023-12-20T06:23:25;101595.25;;;7.22;84.27
80188;BME280;73735;52.134;5.436;2023-12-20T06:25:53;101589.06;;;7.23;84.36
80188;BME280;73735;52.134;5.436;2023-12-20T06:28:20;101594.16;;;7.26;83.78
80188;BME280;73735;52.134;5.436;2023-12-20T06:30:46;101597.50;;;7.28;83.78
80188;BME280;73735;52.134;5.436;2023-12-20T06:33:15;101597.50;;;7.28;84.05
80188;BME280;73735;52.134;5.436;2023-12-20T06:35:42;101604.28;;;7.32;84.07
80188;BME280;73735;52.134;5.436;2023-12-20T06:38:09;101603.44;;;7.32;83.68
80188;BME280;73735;52.134;5.436;2023-12-20T06:40:35;101600.06;;;7.30;83.46
80188;BME280;73735;52.134;5.436;2023-12-20T06:43:02;101602.59;;;7.31;83.91
80188;BME280;73735;52.134;5.436;2023-12-20T06:45:41;101592.97;;;7.32;83.61
80188;BME280;73735;52.134;5.436;2023-12-20T06:48:08;101596.34;;;7.34;83.68
80188;BME280;73735;52.134;5.436;2023-12-20T06:50:36;101594.66;;;7.33;83.71
80188;BME280;73735;52.134;5.436;2023-12-20T06:53:06;101570.94;;;7.36;83.99
80188;BME280;73735;52.134;5.436;2023-12-20T06:55:34;101581.34;;;7.37;83.75
80188;BME280;73735;52.134;5.436;2023-12-20T06:58:02;101578.78;;;7.36;83.90
80188;BME280;73735;52.134;5.436;2023-12-20T07:00:28;101591.03;;;7.35;83.75
80188;BME280;73735;52.134;5.436;2023-12-20T07:02:55;101583.19;;;7.35;84.08
80188;BME280;73735;52.134;5.436;2023-12-20T07:05:22;101575.25;;;7.37;83.87
80188;BME280;73735;52.134;5.436;2023-12-20T07:07:48;101584.81;;;7.38;83.79
80188;BME280;73735;52.134;5.436;2023-12-20T07:10:15;101592.66;;;7.38;83.91
80188;BME280;73735;52.134;5.436;2023-12-20T07:12:42;101583.94;;;7.37;84.14
80188;BME280;73735;52.134;5.436;2023-12-20T07:15:09;101589.19;;;7.37;83.86
80188;BME280;73735;52.134;5.436;2023-12-20T07:17:35;101587.34;;;7.39;83.49
80188;BME280;73735;52.134;5.436;2023-12-20T07:20:02;101568.94;;;7.41;83.45
80188;BME280;73735;52.134;5.436;2023-12-20T07:22:33;101576.69;;;7.42;83.65
80188;BME280;73735;52.134;5.436;2023-12-20T07:25:00;101570.59;;;7.42;83.49
80188;BME280;73735;52.134;5.436;2023-12-20T07:27:27;101571.28;;;7.46;83.35
80188;BME280;73735;52.134;5.436;2023-12-20T07:29:53;101566.88;;;7.46;83.20
80188;BME280;73735;52.134;5.436;2023-12-20T07:32:20;101572.06;;;7.48;83.71
80188;BME280;73735;52.134;5.436;2023-12-20T07:34:46;101575.50;;;7.48;83.53
80188;BME280;73735;52.134;5.436;2023-12-20T07:37:13;101570.19;;;7.50;83.57
80188;BME280;73735;52.134;5.436;2023-12-20T07:39:40;101567.56;;;7.50;83.50
80188;BME280;73735;52.134;5.436;2023-12-20T07:42:08;101558.78;;;7.51;83.51
80188;BME280;73735;52.134;5.436;2023-12-20T07:44:34;101565.72;;;7.52;83.47
80188;BME280;73735;52.134;5.436;2023-12-20T07:47:04;101567.41;;;7.53;83.67
80188;BME280;73735;52.134;5.436;2023-12-20T07:49:31;101576.03;;;7.55;83.39
80188;BME280;73735;52.134;5.436;2023-12-20T07:51:58;101578.66;;;7.55;83.24
80188;BME280;73735;52.134;5.436;2023-12-20T07:54:25;101584.69;;;7.57;83.41
80188;BME280;73735;52.134;5.436;2023-12-20T07:56:51;101586.34;;;7.58;83.09
80188;BME280;73735;52.134;5.436;2023-12-20T07:59:18;101589.72;;;7.60;82.92
80188;BME280;73735;52.134;5.436;2023-12-20T08:01:57;101595.81;;;7.60;83.10
80188;BME280;73735;52.134;5.436;2023-12-20T08:04:24;101591.41;;;7.61;83.14
80188;BME280;73735;52.134;5.436;2023-12-20T08:06:51;101594.72;;;7.64;82.90
80188;BME280;73735;52.134;5.436;2023-12-20T08:09:17;101603.44;;;7.65;82.94
80188;BME280;73735;52.134;5.436;2023-12-20T08:11:47;101616.53;;;7.65;83.12
80188;BME280;73735;52.134;5.436;2023-12-20T08:14:15;101611.22;;;7.66;82.91
80188;BME280;73735;52.134;5.436;2023-12-20T08:16:44;101611.13;;;7.68;83.12
80188;BME280;73735;52.134;5.436;2023-12-20T08:19:10;101609.38;;;7.68;83.18
80188;BME280;73735;52.134;5.436;2023-12-20T08:21:37;101602.28;;;7.70;83.01
80188;BME280;73735;52.134;5.436;2023-12-20T08:24:04;101598.72;;;7.71;82.95
80188;BME280;73735;52.134;5.436;2023-12-20T08:26:32;101600.56;;;7.69;82.87
80188;BME280;73735;52.134;5.436;2023-12-20T08:28:59;101589.06;;;7.72;83.04
80188;BME280;73735;52.134;5.436;2023-12-20T08:31:27;101589.75;;;7.75;83.00
80188;BME280;73735;52.134;5.436;2023-12-20T08:33:54;101594.13;;;7.75;83.11
80188;BME280;73735;52.134;5.436;2023-12-20T08:36:21;101586.28;;;7.75;82.89
80188;BME280;73735;52.134;5.436;2023-12-20T08:38:49;101588.91;;;7.75;83.06
80188;BME280;73735;52.134;5.436;2023-12-20T08:41:16;101589.81;;;7.74;82.97
80188;BME280;73735;52.134;5.436;2023-12-20T08:43:43;101582.81;;;7.74;82.83
80188;BME280;73735;52.134;5.436;2023-12-20T08:46:10;101587.03;;;7.77;83.08
80188;BME280;73735;52.134;5.436;2023-12-20T08:48:36;101587.38;;;8.02;82.83
80188;BME280;73735;52.134;5.436;2023-12-20T08:51:04;101585.28;;;7.93;82.75
80188;BME280;73735;52.134;5.436;2023-12-20T08:53:31;101588.22;;;7.87;83.01
80188;BME280;73735;52.134;5.436;2023-12-20T08:55:57;101581.47;;;7.83;83.33
80188;BME280;73735;52.134;5.436;2023-12-20T08:58:28;101590.28;;;7.82;83.73
80188;BME280;73735;52.134;5.436;2023-12-20T09:00:54;101586.03;;;7.79;83.93
80188;BME280;73735;52.134;5.436;2023-12-20T09:03:21;101590.50;;;7.77;84.46
80188;BME280;73735;52.134;5.436;2023-12-20T09:05:47;101590.59;;;7.76;84.67
80188;BME280;73735;52.134;5.436;2023-12-20T09:08:14;101583.72;;;7.73;84.85
80188;BME280;73735;52.134;5.436;2023-12-20T09:10:40;101593.38;;;7.73;85.25
80188;BME280;73735;52.134;5.436;2023-12-20T09:13:07;101588.06;;;7.74;85.61
80188;BME280;73735;52.134;5.436;2023-12-20T09:15:33;101587.81;;;7.79;85.62
80188;BME280;73735;52.134;5.436;2023-12-20T09:18:02;101582.72;;;7.76;85.75
80188;BME280;73735;52.134;5.436;2023-12-20T09:20:30;101582.88;;;7.73;86.05
80188;BME280;73735;52.134;5.436;2023-12-20T09:22:57;101573.34;;;7.72;85.95
80188;BME280;73735;52.134;5.436;2023-12-20T09:25:23;101580.38;;;7.71;86.54
80188;BME280;73735;52.134;5.436;2023-12-20T09:27:50;101582.31;;;7.68;86.76
80188;BME280;73735;52.134;5.436;2023-12-20T09:30:17;101583.16;;;7.68;86.47
80188;BME280;73735;52.134;5.436;2023-12-20T09:32:53;101575.22;;;7.70;86.59
80188;BME280;73735;52.134;5.436;2023-12-20T09:35:19;101581.19;;;7.72;86.52
80188;BME280;73735;52.134;5.436;2023-12-20T09:37:46;101579.25;;;7.75;86.39
80188;BME280;73735;52.134;5.436;2023-12-20T09:40:13;101585.19;;;7.79;85.98
80188;BME280;73735;52.134;5.436;2023-12-20T09:42:51;101579.88;;;7.81;85.99
80188;BME280;73735;52.134;5.436;2023-12-20T09:45:22;101580.63;;;7.83;86.14
80188;BME280;73735;52.134;5.436;2023-12-20T09:47:53;101585.72;;;7.86;85.94
80188;BME280;73735;52.134;5.436;2023-12-20T09:50:21;101591.69;;;7.88;86.05
80188;BME280;73735;52.134;5.436;2023-12-20T09:52:50;101589.66;;;7.93;85.94
80188;BME280;73735;52.134;5.436;2023-12-20T09:55:17;101590.28;;;7.98;85.28
80188;BME280;73735;52.134;5.436;2023-12-20T09:57:48;101585.69;;;8.01;84.97
80188;BME280;73735;52.134;5.436;2023-12-20T10:00:16;101587.88;;;8.09;85.28
80188;BME280;73735;52.134;5.436;2023-12-20T10:02:59;101581.38;;;8.16;84.39
80188;BME280;73735;52.134;5.436;2023-12-20T10:05:30;101587.56;;;8.15;84.55
80188;BME280;73735;52.134;5.436;2023-12-20T10:07:58;101605.00;;;8.16;84.21
80188;BME280;73735;52.134;5.436;2023-12-20T10:10:26;101591.69;;;8.19;83.84
80188;BME280;73735;52.134;5.436;2023-12-20T10:13:09;101600.41;;;8.20;83.64
80188;BME280;73735;52.134;5.436;2023-12-20T10:15:37;101609.03;;;8.22;83.67
80188;BME280;73735;52.134;5.436;2023-12-20T10:18:04;101608.19;;;8.21;83.76
80188;BME280;73735;52.134;5.436;2023-12-20T10:20:31;101605.38;;;8.24;83.24
80188;BME280;73735;52.134;5.436;2023-12-20T10:22:59;101607.00;;;8.27;83.33
80188;BME280;73735;52.134;5.436;2023-12-20T10:25:26;101605.16;;;8.29;83.40
80188;BME280;73735;52.134;5.436;2023-12-20T10:28:10;101599.91;;;8.29;83.14
80188;BME280;73735;52.134;5.436;2023-12-20T10:30:38;101591.09;;;8.30;83.07
80188;BME280;73735;52.134;5.436;2023-12-20T10:33:09;101592.72;;;8.32;83.01
80188;BME280;73735;52.134;5.436;2023-12-20T10:35:37;101590.84;;;8.34;83.26
80188;BME280;73735;52.134;5.436;2023-12-20T10:38:07;101589.66;;;8.40;83.02
80188;BME280;73735;52.134;5.436;2023-12-20T10:40:35;101587.81;;;8.42;82.46
80188;BME280;73735;52.134;5.436;2023-12-20T10:43:04;101585.34;;;8.39;82.51
80188;BME280;73735;52.134;5.436;2023-12-20T10:45:31;101568.75;;;8.38;81.94
80188;BME280;73735;52.134;5.436;2023-12-20T10:47:58;101575.44;;;8.44;82.12
80188;BME280;73735;52.134;5.436;2023-12-20T10:50:28;101580.50;;;8.47;81.79
80188;BME280;73735;52.134;5.436;2023-12-20T10:52:56;101576.09;;;8.47;81.87
80188;BME280;73735;52.134;5.436;2023-12-20T10:55:24;101571.78;;;8.46;82.02
80188;BME280;73735;52.134;5.436;2023-12-20T10:57:51;101574.31;;;8.48;82.22
80188;BME280;73735;52.134;5.436;2023-12-20T11:00:18;101572.28;;;8.53;81.34
80188;BME280;73735;52.134;5.436;2023-12-20T11:02:45;101571.25;;;8.56;81.45
80188;BME280;73735;52.134;5.436;2023-12-20T11:05:38;101563.22;;;8.59;81.34
80188;BME280;73735;52.134;5.436;2023-12-20T11:08:15;101562.84;;;8.65;81.26
80188;BME280;73735;52.134;5.436;2023-12-20T11:13:19;101554.69;;;8.69;81.09
80188;BME280;73735;52.134;5.436;2023-12-20T11:15:46;101564.09;;;8.73;80.70
80188;BME280;73735;52.134;5.436;2023-12-20T11:18:14;101552.66;;;8.74;80.50
80188;BME280;73735;52.134;5.436;2023-12-20T11:20:41;101555.06;;;8.77;81.01
80188;BME280;73735;52.134;5.436;2023-12-20T11:23:08;101556.78;;;8.78;80.81
80188;BME280;73735;52.134;5.436;2023-12-20T11:28:12;101539.31;;;8.77;80.73
80188;BME280;73735;52.134;5.436;2023-12-20T11:30:46;101533.44;;;8.74;80.67
80188;BME280;73735;52.134;5.436;2023-12-20T11:33:14;101536.78;;;8.76;80.56
80188;BME280;73735;52.134;5.436;2023-12-20T11:35:42;101534.66;;;8.82;80.38
80188;BME280;73735;52.134;5.436;2023-12-20T11:38:09;101538.72;;;8.88;80.90
80188;BME280;73735;52.134;5.436;2023-12-20T11:40:37;101536.44;;;8.96;80.73
80188;BME280;73735;52.134;5.436;2023-12-20T11:43:04;101532.63;;;9.02;80.38
80188;BME280;73735;52.134;5.436;2023-12-20T11:45:31;101529.91;;;9.03;79.99
80188;BME280;73735;52.134;5.436;2023-12-20T11:47:58;101528.13;;;9.04;79.79
80188;BME280;73735;52.134;5.436;2023-12-20T11:50:25;101506.25;;;9.03;79.71
80188;BME280;73735;52.134;5.436;2023-12-20T11:52:52;101507.97;;;9.04;79.84
80188;BME280;73735;52.134;5.436;2023-12-20T11:55:20;101506.34;;;9.02;79.72
80188;BME280;73735;52.134;5.436;2023-12-20T11:57:46;101500.06;;;9.04;79.65
80188;BME280;73735;52.134;5.436;2023-12-20T12:00:14;101512.16;;;9.07;79.48
80188;BME280;73735;52.134;5.436;2023-12-20T12:02:41;101499.88;;;9.07;78.99
80188;BME280;73735;52.134;5.436;2023-12-20T12:05:09;101502.59;;;9.06;78.66
80188;BME280;73735;52.134;5.436;2023-12-20T12:07:36;101507.84;;;9.06;78.63
80188;BME280;73735;52.134;5.436;2023-12-20T12:10:04;101505.22;;;9.06;78.72
80188;BME280;73735;52.134;5.436;2023-12-20T12:12:31;101514.78;;;9.07;78.59
80188;BME280;73735;52.134;5.436;2023-12-20T12:14:59;101517.31;;;9.08;78.65
80188;BME280;73735;52.134;5.436;2023-12-20T12:17:25;101522.56;;;9.08;78.44
80188;BME280;73735;52.134;5.436;2023-12-20T12:20:02;101519.09;;;9.08;78.54
80188;BME280;73735;52.134;5.436;2023-12-20T12:22:28;101530.44;;;9.08;78.71
80188;BME280;73735;52.134;5.436;2023-12-20T12:24:59;101519.66;;;9.13;79.03
80188;BME280;73735;52.134;5.436;2023-12-20T12:27:27;101523.81;;;9.17;78.90
80188;BME280;73735;52.134;5.436;2023-12-20T12:30:04;101499.22;;;9.18;78.80
80188;BME280;73735;52.134;5.436;2023-12-20T12:32:31;101498.28;;;9.19;78.55
80188;BME280;73735;52.134;5.436;2023-12-20T12:34:58;101492.91;;;9.20;78.71
80188;BME280;73735;52.134;5.436;2023-12-20T12:37:25;101485.88;;;9.21;78.81
80188;BME280;73735;52.134;5.436;2023-12-20T12:39:56;101487.56;;;9.22;78.87
80188;BME280;73735;52.134;5.436;2023-12-20T12:42:23;101487.66;;;9.20;78.74
80188;BME280;73735;52.134;5.436;2023-12-20T12:44:54;101483.38;;;9.19;78.65
80188;BME280;73735;52.134;5.436;2023-12-20T12:47:22;101471.16;;;9.18;78.58
80188;BME280;73735;52.134;5.436;2023-12-20T12:49:51;101471.16;;;9.18;79.16
80188;BME280;73735;52.134;5.436;2023-12-20T12:52:19;101469.38;;;9.19;79.34
80188;BME280;73735;52.134;5.436;2023-12-20T12:54:46;101466.75;;;9.19;79.36
80188;BME280;73735;52.134;5.436;2023-12-20T12:57:14;101472.97;;;9.18;79.27
80188;BME280;73735;52.134;5.436;2023-12-20T12:59:42;101471.16;;;9.18;79.22
80188;BME280;73735;52.134;5.436;2023-12-20T13:02:08;101467.69;;;9.18;79.33
80188;BME280;73735;52.134;5.436;2023-12-20T13:04:35;101446.69;;;9.18;79.39
80188;BME280;73735;52.134;5.436;2023-12-20T13:07:02;101454.66;;;9.16;79.45